Time;durP1;ratioP1;P1;durP2;ratioP2;P2;SDS_P1;SDS_P2;PMS_P1;PMS_P2;Temp;Humidity;BMP_temperature;BMP_pressure;BME280_temperature;BME280_humidity;BME280_pressure;Samples;Min_cycle;Max_cycle;Signal;HPM_P1;HPM_P2
2024/03/02 00:00:21;;;;;;;48.40;29.70;;;;;;;3.24;67.81;100334.04;105885;1258;69918;-75
2024/03/02 00:02:49;;;;;;;43.60;29.10;;;;;;;3.27;67.84;100339.73;105856;1253;72724;-75
2024/03/02 00:05:21;;;;;;;49.40;32.80;;;;;;;3.26;68.08;100340.19;105838;1257;60530;-75
2024/03/02 00:07:52;;;;;;;45.30;30.00;;;;;;;3.21;68.06;100337.39;105840;1260;60537;-74
2024/03/02 00:10:21;;;;;;;48.80;31.00;;;;;;;3.17;68.19;100328.87;106040;1257;73857;-72
2024/03/02 00:12:48;;;;;;;50.80;32.40;;;;;;;3.15;68.40;100328.50;105826;1253;69379;-72
2024/03/02 00:15:46;;;;;;;47.20;30.50;;;;;;;3.12;68.59;100326.92;105899;1253;71375;-72
2024/03/02 00:18:24;;;;;;;57.80;31.60;;;;;;;3.08;68.67;100327.55;105886;1256;60410;-73
2024/03/02 00:20:56;;;;;;;46.40;30.40;;;;;;;3.06;68.90;100334.73;105862;1253;60416;-71
2024/03/02 00:23:26;;;;;;;49.00;31.80;;;;;;;3.04;69.04;100334.19;105926;1257;73899;-72
2024/03/02 00:25:54;;;;;;;49.60;31.70;;;;;;;3.00;68.97;100330.75;106908;1253;69571;-72
2024/03/02 00:28:36;;;;;;;45.30;30.80;;;;;;;3.00;68.88;100332.90;107269;1256;72731;-72
2024/03/02 00:31:04;;;;;;;52.60;31.80;;;;;;;2.97;68.75;100327.66;106067;1257;60540;-75
2024/03/02 00:33:36;;;;;;;47.40;30.40;;;;;;;3.04;68.73;100327.02;105824;1253;60534;-74
2024/03/02 00:36:03;;;;;;;42.70;29.30;;;;;;;3.10;68.57;100324.32;105741;1258;73912;-74
2024/03/02 00:38:31;;;;;;;52.00;31.50;;;;;;;3.08;68.98;100315.86;105796;1253;70484;-75
2024/03/02 00:41:00;;;;;;;47.60;30.90;;;;;;;3.01;68.70;100314.25;105846;1255;70764;-74
2024/03/02 00:43:39;;;;;;;47.20;30.30;;;;;;;2.95;68.96;100317.09;105867;1257;60486;-74
2024/03/02 00:46:12;;;;;;;42.90;29.60;;;;;;;2.90;69.17;100321.48;106073;1253;60534;-72
2024/03/02 00:48:48;;;;;;;53.20;31.90;;;;;;;2.85;69.17;100318.70;106150;1254;72991;-73
2024/03/02 00:51:15;;;;;;;49.10;32.60;;;;;;;2.78;69.36;100319.15;105911;1253;70173;-71
2024/03/02 00:53:43;;;;;;;50.70;32.80;;;;;;;2.71;69.35;100317.86;105721;1256;72703;-73
2024/03/02 00:56:11;;;;;;;40.60;28.60;;;;;;;2.64;69.43;100313.79;105865;1255;60483;-75
2024/03/02 00:58:39;;;;;;;46.90;28.90;;;;;;;2.59;69.74;100317.09;105851;1252;60508;-74
2024/03/02 01:01:07;;;;;;;42.50;25.80;;;;;;;2.58;70.14;100313.86;105783;1253;73749;-73
2024/03/02 01:03:35;;;;;;;42.60;27.00;;;;;;;2.66;70.16;100309.77;105954;1257;70099;-72
2024/03/02 01:06:03;;;;;;;46.00;28.60;;;;;;;2.79;69.92;100308.00;105865;1253;71502;-73
2024/03/02 01:08:30;;;;;;;43.70;28.80;;;;;;;2.85;70.14;100309.40;106046;1253;60451;-73
2024/03/02 01:10:58;;;;;;;47.20;27.90;;;;;;;2.83;69.75;100307.21;105902;1253;60541;-75
2024/03/02 01:13:25;;;;;;;48.10;30.80;;;;;;;2.81;69.72;100305.08;105815;1255;73952;-73
2024/03/02 01:15:53;;;;;;;43.10;27.60;;;;;;;2.79;69.62;100307.02;105987;1258;69141;-73
2024/03/02 01:18:22;;;;;;;38.30;26.10;;;;;;;2.75;69.97;100308.11;105984;1252;72783;-73
2024/03/02 01:20:55;;;;;;;41.30;26.90;;;;;;;2.72;70.13;100305.19;107163;1253;60496;-73
2024/03/02 01:23:23;;;;;;;52.80;30.80;;;;;;;2.70;70.25;100300.45;106921;1257;60505;-73
2024/03/02 01:25:51;;;;;;;45.80;29.10;;;;;;;2.68;70.04;100302.51;105889;1257;73771;-73
2024/03/02 01:28:20;;;;;;;43.80;28.50;;;;;;;2.61;69.91;100301.04;105970;1256;70135;-72
2024/03/02 01:30:48;;;;;;;42.40;25.60;;;;;;;2.53;70.09;100299.98;105818;1260;72684;-74
2024/03/02 01:33:19;;;;;;;47.30;29.00;;;;;;;2.56;70.28;100304.34;105764;1254;60970;-75
2024/03/02 01:35:47;;;;;;;44.90;27.10;;;;;;;2.65;70.01;100303.75;105944;1253;60456;-75
2024/03/02 01:38:14;;;;;;;46.50;28.90;;;;;;;2.65;69.93;100302.71;105789;1256;73660;-75
2024/03/02 01:40:44;;;;;;;46.50;30.20;;;;;;;2.61;70.14;100301.40;105822;1253;67970;-76
2024/03/02 01:43:12;;;;;;;43.70;30.60;;;;;;;2.54;69.90;100298.35;105879;1258;71417;-73
2024/03/02 01:45:39;;;;;;;46.60;30.60;;;;;;;2.46;70.12;100297.14;105929;1257;60630;-75
2024/03/02 01:48:07;;;;;;;50.50;32.00;;;;;;;2.41;70.15;100295.39;105894;1253;60519;-73
2024/03/02 01:50:35;;;;;;;48.30;32.00;;;;;;;2.34;70.54;100295.64;105712;1253;72658;-74
2024/03/02 01:53:03;;;;;;;49.60;33.20;;;;;;;2.29;70.48;100296.49;105735;1253;70152;-74
2024/03/02 01:55:30;;;;;;;49.10;32.90;;;;;;;2.22;70.60;100294.69;105861;1254;73602;-74
2024/03/02 01:57:58;;;;;;;48.10;31.70;;;;;;;2.17;70.72;100292.59;105808;1256;60775;-73
2024/03/02 02:00:26;;;;;;;48.30;29.80;;;;;;;2.13;70.95;100300.16;105877;1256;60460;-73
2024/03/02 02:02:54;;;;;;;44.30;29.00;;;;;;;2.17;71.03;100301.16;105674;1253;72399;-72
2024/03/02 02:05:22;;;;;;;43.00;28.30;;;;;;;2.25;70.96;100305.01;105662;1253;70294;-74
2024/03/02 02:07:50;;;;;;;43.60;29.90;;;;;;;2.25;71.23;100308.00;105771;1257;239874;-73
2024/03/02 02:11:07;;;;;;;47.40;30.90;;;;;;;2.23;71.26;100304.58;102787;1298;600898;-72
2024/03/02 02:13:34;;;;;;;58.10;32.40;;;;;;;2.13;71.15;100308.55;105561;1273;59338;-72
2024/03/02 02:16:08;;;;;;;51.50;32.00;;;;;;;2.07;71.32;100304.03;105964;1267;59242;-73
2024/03/02 02:18:38;;;;;;;47.10;32.60;;;;;;;2.04;71.36;100304.27;105458;1267;73614;-75
2024/03/02 02:21:06;;;;;;;48.40;31.60;;;;;;;2.01;71.36;100305.52;105964;1267;70010;-72
2024/03/02 02:23:33;;;;;;;53.50;33.40;;;;;;;1.90;71.04;100303.22;105580;1260;71382;-73
2024/03/02 02:26:03;;;;;;;51.80;31.10;;;;;;;1.75;71.07;100300.17;105638;1258;59225;-72
2024/03/02 02:28:31;;;;;;;45.40;30.90;;;;;;;1.70;71.34;100296.63;105909;1255;59719;-71
2024/03/02 02:31:00;;;;;;;44.90;29.80;;;;;;;1.74;71.48;100301.79;105821;1261;72345;-75
2024/03/02 02:33:28;;;;;;;51.10;31.30;;;;;;;1.70;71.58;100299.95;105834;1258;70463;-73
2024/03/02 02:35:56;;;;;;;60.60;34.70;;;;;;;1.63;71.97;100299.06;105885;1255;71205;-73
2024/03/02 02:38:23;;;;;;;48.30;31.30;;;;;;;1.60;72.18;100299.20;105769;1254;59798;-73
2024/03/02 02:40:51;;;;;;;54.50;31.90;;;;;;;1.54;72.13;100299.21;105322;1254;60901;-72
2024/03/02 02:43:18;;;;;;;50.90;32.70;;;;;;;1.45;72.17;100301.92;105538;1254;71763;-74
2024/03/02 02:45:46;;;;;;;47.20;32.30;;;;;;;1.31;72.33;100302.41;105810;1254;70269;-71
2024/03/02 02:48:13;;;;;;;47.70;33.30;;;;;;;1.20;72.64;100304.31;105810;1260;71258;-72
2024/03/02 02:50:41;;;;;;;51.80;30.80;;;;;;;1.14;72.90;100307.48;105960;1254;59701;-72
2024/03/02 02:53:09;;;;;;;53.10;31.90;;;;;;;1.15;73.07;100308.11;105696;1258;59625;-71
2024/03/02 02:55:40;;;;;;;48.80;31.10;;;;;;;1.22;72.97;100300.36;105078;1261;73023;-73
2024/03/02 02:58:07;;;;;;;48.50;31.90;;;;;;;1.22;73.41;100302.43;105680;1258;70006;-71
2024/03/02 03:00:36;;;;;;;49.90;31.40;;;;;;;1.20;73.43;100305.88;105456;1254;72748;-72
2024/03/02 03:03:04;;;;;;;47.30;31.70;;;;;;;1.17;73.61;100303.94;105819;1254;59616;-72
2024/03/02 03:05:31;;;;;;;49.40;32.70;;;;;;;1.14;73.76;100300.45;105395;1254;60183;-72
2024/03/02 03:07:59;;;;;;;47.80;31.30;;;;;;;1.14;73.96;100297.49;106332;1259;73064;-70
2024/03/02 03:10:27;;;;;;;48.80;33.30;;;;;;;1.15;74.15;100297.48;106820;1254;70481;-72
2024/03/02 03:12:56;;;;;;;54.40;30.30;;;;;;;1.16;74.14;100301.39;106115;1254;71421;-73
2024/03/02 03:15:24;;;;;;;48.00;31.30;;;;;;;1.25;73.83;100299.84;105687;1253;60904;-74
2024/03/02 03:17:51;;;;;;;54.10;31.10;;;;;;;1.36;73.53;100298.44;105514;1254;60547;-71
2024/03/02 03:20:21;;;;;;;42.60;30.00;;;;;;;1.37;73.56;100298.56;105482;1254;71863;-73
2024/03/02 03:22:49;;;;;;;47.70;30.70;;;;;;;1.32;73.69;100294.30;105596;1254;69964;-70
2024/03/02 03:25:16;;;;;;;49.80;32.70;;;;;;;1.27;74.05;100296.56;105448;1254;71408;-73
2024/03/02 03:27:44;;;;;;;48.20;33.30;;;;;;;1.24;74.20;100296.58;105542;1255;59672;-72
2024/03/02 03:30:11;;;;;;;52.70;33.60;;;;;;;1.21;74.34;100294.51;105730;1260;60079;-73
2024/03/02 03:32:39;;;;;;;49.60;30.50;;;;;;;1.16;74.39;100297.04;105262;1254;71769;-74
2024/03/02 03:35:07;;;;;;;46.50;30.20;;;;;;;1.19;74.51;100293.70;105388;1260;68190;-71
2024/03/02 03:37:35;;;;;;;49.90;30.20;;;;;;;1.26;74.49;100296.98;105480;1254;71430;-73
2024/03/02 03:40:02;;;;;;;50.70;32.10;;;;;;;1.23;74.78;100292.24;105439;1254;59766;-71
2024/03/02 03:42:30;;;;;;;46.50;32.40;;;;;;;1.19;75.13;100296.03;105430;1260;59630;-71
2024/03/02 03:44:58;;;;;;;46.70;31.30;;;;;;;1.15;75.39;100299.02;105486;1254;71912;-71
2024/03/02 03:47:25;;;;;;;48.80;31.40;;;;;;;1.12;75.50;100290.87;105388;1254;70297;-73
2024/03/02 03:49:53;;;;;;;51.80;33.20;;;;;;;1.09;75.82;100291.21;105620;1260;71936;-70
2024/03/02 03:52:21;;;;;;;50.40;30.10;;;;;;;1.05;75.66;100289.33;105310;1260;59814;-74
2024/03/02 03:54:48;;;;;;;44.20;29.40;;;;;;;1.06;75.66;100289.86;105562;1257;60035;-73
2024/03/02 03:57:16;;;;;;;47.00;29.80;;;;;;;1.10;75.73;100289.23;105551;1254;71821;-72
2024/03/02 03:59:44;;;;;;;43.10;28.80;;;;;;;1.09;76.04;100292.45;105806;1260;70786;-73
2024/03/02 04:02:12;;;;;;;46.70;30.60;;;;;;;1.06;76.34;100292.80;106440;1254;71374;-71
2024/03/02 04:04:40;;;;;;;49.10;30.60;;;;;;;1.03;76.37;100290.73;106081;1259;59744;-71
2024/03/02 04:07:08;;;;;;;47.80;31.10;;;;;;;1.00;76.58;100290.20;105478;1256;60198;-71
2024/03/02 04:09:35;;;;;;;50.10;32.80;;;;;;;0.96;76.60;100288.18;105485;1254;73041;-70
2024/03/02 04:12:03;;;;;;;51.90;31.70;;;;;;;0.91;76.65;100287.23;105788;1254;69956;-75
2024/03/02 04:14:30;;;;;;;46.10;29.80;;;;;;;0.95;76.57;100278.97;105777;1259;72615;-73
2024/03/02 04:16:58;;;;;;;42.60;27.30;;;;;;;1.02;76.43;100285.55;105544;1259;59859;-72
2024/03/02 04:19:25;;;;;;;45.20;29.70;;;;;;;1.01;76.67;100285.44;105505;1258;59833;-73
2024/03/02 04:21:53;;;;;;;48.10;30.50;;;;;;;0.95;76.80;100284.70;105688;1258;73142;-72
2024/03/02 04:24:20;;;;;;;46.60;30.60;;;;;;;0.91;77.07;100283.75;105611;1256;68962;-73
2024/03/02 04:26:48;;;;;;;43.90;30.20;;;;;;;0.86;77.09;100284.40;105486;1258;71561;-72
2024/03/02 04:29:16;;;;;;;50.40;32.40;;;;;;;0.80;77.22;100285.81;105628;1257;59744;-72
2024/03/02 04:31:43;;;;;;;49.80;32.40;;;;;;;0.74;77.51;100290.31;105720;1259;59612;-74
2024/03/02 04:34:11;;;;;;;49.20;30.80;;;;;;;0.79;77.41;100285.34;105338;1256;71740;-72
2024/03/02 04:36:38;;;;;;;47.60;30.80;;;;;;;0.86;77.42;100287.35;105750;1258;70310;-71
2024/03/02 04:39:09;;;;;;;42.10;30.20;;;;;;;0.85;77.47;100289.55;105397;1259;71189;-70
2024/03/02 04:41:37;;;;;;;45.60;30.60;;;;;;;0.78;77.75;100292.56;105494;1254;59596;-74
2024/03/02 04:44:04;;;;;;;49.70;33.40;;;;;;;0.71;77.94;100294.15;105851;1254;59635;-74
2024/03/02 04:46:32;;;;;;;51.20;33.50;;;;;;;0.66;78.13;100291.52;105789;1254;71754;-71
2024/03/02 04:49:00;;;;;;;49.00;32.70;;;;;;;0.63;78.31;100287.20;105821;1258;69130;-71
2024/03/02 04:51:27;;;;;;;48.00;33.10;;;;;;;0.67;78.31;100286.41;105418;1257;72781;-72
2024/03/02 04:53:55;;;;;;;49.00;32.30;;;;;;;0.75;78.21;100288.90;105563;1259;59714;-72
2024/03/02 04:58:50;;;;;;;49.70;33.90;;;;;;;0.72;78.48;100284.37;106255;1254;72899;-72
2024/03/02 05:01:17;;;;;;;52.00;34.60;;;;;;;0.70;78.79;100286.20;106136;1257;69064;-73
2024/03/02 05:03:45;;;;;;;54.20;36.30;;;;;;;0.71;78.81;100285.47;105734;1258;72632;-74
2024/03/02 05:06:12;;;;;;;52.10;33.70;;;;;;;0.71;78.87;100287.41;105436;1260;59759;-74
2024/03/02 05:08:40;;;;;;;50.80;32.60;;;;;;;0.69;78.73;100289.42;105688;1258;59665;-73
2024/03/02 05:13:53;;;;;;;45.70;30.90;;;;;;;0.89;78.56;100292.39;105696;1255;70917;-73
2024/03/02 05:16:21;;;;;;;46.50;29.70;;;;;;;0.91;78.59;100290.38;105658;1258;71682;-73
2024/03/02 05:18:48;;;;;;;48.70;32.90;;;;;;;0.90;78.71;100287.63;105283;1256;59633;-71
2024/03/02 05:21:16;;;;;;;49.90;32.40;;;;;;;0.90;78.76;100283.95;105335;1256;59784;-72
2024/03/02 05:23:44;;;;;;;45.60;31.40;;;;;;;0.90;78.79;100282.97;105917;1256;71910;-72
2024/03/02 05:26:14;;;;;;;49.00;31.90;;;;;;;0.90;78.86;100286.09;105709;1260;68710;-73
2024/03/02 05:28:41;;;;;;;47.80;30.60;;;;;;;0.92;78.79;100285.42;105675;1258;73628;-73
2024/03/02 05:31:12;;;;;;;41.60;28.60;;;;;;;1.04;78.54;100287.15;105792;1256;60965;-74
2024/03/02 05:33:40;;;;;;;44.90;27.80;;;;;;;1.16;78.39;100283.47;105650;1256;60154;-73
2024/03/02 05:36:07;;;;;;;45.50;29.70;;;;;;;1.18;78.21;100282.24;105540;1256;72325;-72
2024/03/02 05:38:35;;;;;;;44.80;30.20;;;;;;;1.20;78.19;100279.57;105491;1258;70393;-74
2024/03/02 05:41:03;;;;;;;49.20;30.80;;;;;;;1.22;78.36;100283.95;105605;1256;72668;-74
2024/03/02 05:43:30;;;;;;;47.30;31.60;;;;;;;1.25;78.43;100285.83;105671;1259;59757;-73
2024/03/02 05:45:57;;;;;;;42.20;27.90;;;;;;;1.30;78.23;100287.83;105685;1256;60018;-74
2024/03/02 05:48:25;;;;;;;42.60;28.50;;;;;;;1.34;77.92;100287.90;105594;1260;72907;-73
2024/03/02 05:50:52;;;;;;;39.30;27.30;;;;;;;1.48;77.67;100283.59;106277;1256;69986;-75
2024/03/02 05:53:20;;;;;;;46.80;28.50;;;;;;;1.62;77.21;100287.56;107152;1256;71391;-74
2024/03/02 05:55:53;;;;;;;42.90;28.90;;;;;;;1.68;77.08;100291.70;106808;1256;59728;-72
2024/03/02 06:01:07;;;;;;;42.30;28.70;;;;;;;1.83;77.10;100288.71;105742;1260;72039;-76
2024/03/02 06:03:34;;;;;;;45.30;29.80;;;;;;;1.88;76.58;100284.89;105679;1260;67986;-76
2024/03/02 06:06:02;;;;;;;42.30;28.70;;;;;;;1.94;76.62;100284.12;105627;1256;72772;-74
2024/03/02 06:08:29;;;;;;;44.20;28.90;;;;;;;2.02;76.27;100283.80;105595;1258;59702;-75
2024/03/02 06:10:58;;;;;;;45.00;28.30;;;;;;;2.07;75.54;100284.48;105735;1254;60017;-74
2024/03/02 06:13:26;;;;;;;39.00;26.40;;;;;;;2.18;75.35;100284.66;105759;1255;72981;-74
2024/03/02 06:15:53;;;;;;;39.50;27.20;;;;;;;2.32;75.04;100287.56;105730;1258;69737;-76
2024/03/02 06:18:21;;;;;;;43.10;27.40;;;;;;;2.40;74.93;100288.11;105445;1253;72984;-77
2024/03/02 06:20:49;;;;;;;44.00;28.40;;;;;;;2.45;74.71;100293.02;105728;1253;60606;-75
2024/03/02 06:23:16;;;;;;;43.40;27.50;;;;;;;2.50;74.48;100288.30;105868;1253;60581;-74
2024/03/02 06:25:43;;;;;;;41.90;29.20;;;;;;;2.56;74.13;100293.15;105862;1253;73930;-76
2024/03/02 06:28:11;;;;;;;42.30;29.70;;;;;;;2.62;73.67;100292.97;105786;1254;70120;-76
2024/03/02 06:30:38;;;;;;;44.40;27.50;;;;;;;2.66;73.85;100295.80;105818;1253;72654;-76
2024/03/02 06:33:06;;;;;;;45.10;29.50;;;;;;;2.73;73.39;100289.54;105745;1254;60560;-75
2024/03/02 06:35:35;;;;;;;44.20;28.60;;;;;;;2.80;73.28;100291.55;105889;1253;60537;-75
2024/03/02 06:38:02;;;;;;;41.70;27.30;;;;;;;2.88;72.96;100291.34;105880;1256;72643;-75
2024/03/02 06:40:30;;;;;;;44.20;27.40;;;;;;;3.05;72.26;100289.67;106002;1258;70674;-76
2024/03/02 06:42:57;;;;;;;44.00;28.10;;;;;;;3.20;71.92;100289.15;105780;1256;72640;-74
2024/03/02 06:45:25;;;;;;;43.00;27.00;;;;;;;3.28;71.62;100286.48;106537;1253;60421;-71
2024/03/02 06:47:52;;;;;;;41.50;28.30;;;;;;;3.33;71.08;100287.88;107568;1254;60426;-74
2024/03/02 06:50:20;;;;;;;41.80;28.20;;;;;;;3.35;70.79;100291.54;106833;1253;72715;-77
2024/03/02 06:52:47;;;;;;;40.50;27.00;;;;;;;3.37;70.36;100292.69;105941;1253;70286;-78
2024/03/02 06:55:14;;;;;;;41.20;28.50;;;;;;;3.38;70.12;100292.41;105886;1253;72626;-74
2024/03/02 06:57:42;;;;;;;45.70;31.50;;;;;;;3.38;69.92;100289.66;105751;1254;60600;-75
2024/03/02 07:00:10;;;;;;;42.40;29.70;;;;;;;3.37;69.93;100290.72;105507;1257;60731;-76
2024/03/02 07:02:37;;;;;;;51.00;33.20;;;;;;;3.40;69.77;100291.27;105841;1258;73812;-75
2024/03/02 07:05:07;;;;;;;48.90;33.80;;;;;;;3.45;69.92;100286.84;105432;1253;70695;-73
2024/03/02 07:07:37;;;;;;;55.10;36.40;;;;;;;3.51;70.01;100288.11;105698;1253;72896;-75
2024/03/02 07:10:07;;;;;;;54.30;36.40;;;;;;;3.58;69.83;100282.90;105792;1256;60454;-75
2024/03/02 07:12:35;;;;;;;50.60;33.60;;;;;;;3.64;69.59;100281.80;105859;1253;60569;-77
2024/03/02 07:17:31;;;;;;;44.90;30.80;;;;;;;3.97;69.53;100275.22;105817;1254;70464;-76
2024/03/02 07:19:58;;;;;;;43.00;31.50;;;;;;;4.06;68.99;100274.69;105524;1256;71559;-73
2024/03/02 07:22:26;;;;;;;48.60;32.10;;;;;;;4.12;68.89;100277.26;105534;1259;60450;-75
2024/03/02 07:24:53;;;;;;;46.00;31.20;;;;;;;4.20;68.38;100279.36;105801;1253;60599;-74
2024/03/02 07:27:21;;;;;;;47.30;30.90;;;;;;;4.26;68.31;100278.02;105657;1260;73863;-75
2024/03/02 07:29:48;;;;;;;41.80;30.90;;;;;;;4.33;68.02;100277.80;105850;1258;68964;-75
2024/03/02 07:32:16;;;;;;;51.30;31.90;;;;;;;4.39;67.72;100279.64;105885;1255;72502;-76
2024/03/02 07:34:44;;;;;;;40.10;29.20;;;;;;;4.45;67.29;100277.80;105819;1254;60467;-76
2024/03/02 07:37:11;;;;;;;44.30;30.40;;;;;;;4.49;67.01;100273.45;105901;1258;61003;-75
2024/03/02 07:39:38;;;;;;;41.90;29.60;;;;;;;4.55;67.07;100275.64;107277;1253;74152;-76
2024/03/02 07:42:06;;;;;;;42.50;30.50;;;;;;;4.62;66.68;100274.60;109022;1253;68811;-77
2024/03/02 07:44:33;;;;;;;39.40;30.00;;;;;;;4.72;66.18;100274.36;107030;1260;70426;-75
2024/03/02 07:47:01;;;;;;;41.50;31.10;;;;;;;4.80;66.26;100269.52;106011;1254;60537;-74
2024/03/02 07:49:28;;;;;;;41.00;30.90;;;;;;;4.88;65.69;100267.52;105847;1254;60589;-75
2024/03/02 07:51:56;;;;;;;42.00;30.00;;;;;;;4.94;65.42;100262.82;105674;1253;72589;-75
2024/03/02 07:54:23;;;;;;;41.10;29.70;;;;;;;5.01;65.17;100263.91;105884;1253;69920;-73
2024/03/02 07:56:51;;;;;;;38.90;27.10;;;;;;;5.09;65.00;100263.05;105755;1258;71204;-73
2024/03/02 07:59:18;;;;;;;38.30;27.40;;;;;;;5.19;64.48;100255.13;105750;1255;60522;-74
2024/03/02 08:01:46;;;;;;;38.70;27.30;;;;;;;5.28;64.25;100252.63;105755;1253;60407;-76
2024/03/02 08:04:14;;;;;;;35.30;24.90;;;;;;;5.41;64.02;100255.29;105796;1257;73825;-74
2024/03/02 08:06:41;;;;;;;33.50;23.90;;;;;;;5.54;63.59;100250.42;105793;1258;70282;-74
2024/03/02 08:09:10;;;;;;;36.00;23.70;;;;;;;5.65;63.35;100248.59;105499;1256;71855;-75
2024/03/02 08:11:37;;;;;;;35.50;24.70;;;;;;;5.78;62.82;100247.04;105730;1260;60534;-76
2024/03/02 08:14:05;;;;;;;37.10;25.50;;;;;;;5.91;62.27;100247.91;105863;1253;61180;-73
2024/03/02 08:16:33;;;;;;;37.60;26.50;;;;;;;6.05;61.72;100245.36;105912;1253;72562;-75
2024/03/02 08:19:00;;;;;;;33.10;23.60;;;;;;;6.18;61.25;100246.98;105800;1255;68844;-73
2024/03/02 08:21:30;;;;;;;38.30;23.40;;;;;;;6.31;60.65;100242.22;105453;1255;72738;-75
2024/03/02 08:23:58;;;;;;;32.40;23.60;;;;;;;6.42;59.86;100242.65;105533;1254;60787;-74
2024/03/02 08:26:28;;;;;;;32.20;22.90;;;;;;;6.54;59.31;100242.42;107920;1253;59386;-73
2024/03/02 08:28:56;;;;;;;35.40;22.50;;;;;;;6.63;58.36;100236.48;106040;1253;74342;-75
2024/03/02 08:31:23;;;;;;;29.30;21.00;;;;;;;6.70;58.16;100235.05;107016;1254;69085;-72
2024/03/02 08:33:51;;;;;;;34.30;22.10;;;;;;;6.78;57.53;100237.86;107331;1253;71347;-74
2024/03/02 08:36:19;;;;;;;31.30;21.30;;;;;;;6.89;57.45;100235.33;106853;1253;60457;-74
2024/03/02 08:38:49;;;;;;;30.40;20.20;;;;;;;7.03;56.69;100232.77;106136;1258;60529;-74
2024/03/02 08:41:16;;;;;;;27.40;20.70;;;;;;;7.16;56.47;100237.23;106208;1258;73890;-75
2024/03/02 08:43:44;;;;;;;29.80;21.60;;;;;;;7.28;56.30;100236.16;105451;1253;70436;-75
2024/03/02 08:46:11;;;;;;;29.40;20.50;;;;;;;7.41;55.91;100235.58;105803;1253;72675;-75
2024/03/02 08:48:39;;;;;;;26.90;19.90;;;;;;;7.52;55.39;100236.78;105664;1253;60444;-75
2024/03/02 08:51:07;;;;;;;29.70;21.30;;;;;;;7.66;55.23;100235.85;105730;1258;60489;-74
2024/03/02 08:53:35;;;;;;;30.60;20.30;;;;;;;7.82;54.78;100236.16;105921;1253;74969;-74
2024/03/02 08:56:05;;;;;;;27.40;19.80;;;;;;;7.98;54.21;100237.04;105863;1259;69635;-74
2024/03/02 08:58:32;;;;;;;26.60;19.40;;;;;;;8.12;53.53;100240.33;105788;1253;71386;-75
2024/03/02 09:01:00;;;;;;;30.50;20.00;;;;;;;8.26;53.38;100238.20;105881;1258;60541;-75
2024/03/02 09:03:27;;;;;;;31.90;20.90;;;;;;;8.42;53.27;100237.41;105806;1257;60397;-74
2024/03/02 09:05:55;;;;;;;27.20;19.70;;;;;;;8.59;53.06;100234.66;105679;1259;73891;-74
2024/03/02 09:08:23;;;;;;;26.40;18.90;;;;;;;8.79;53.00;100233.66;105771;1258;69849;-76
2024/03/02 09:10:50;;;;;;;27.90;20.10;;;;;;;9.03;52.42;100234.77;105933;1257;74795;-74
2024/03/02 09:13:18;;;;;;;25.20;19.20;;;;;;;9.27;51.95;100225.06;105712;1253;60541;-75
2024/03/02 09:15:45;;;;;;;25.60;18.20;;;;;;;9.52;51.30;100230.20;105420;1254;60563;-74
2024/03/02 09:18:13;;;;;;;21.20;18.10;;;;;;;9.79;50.68;100226.52;105475;1254;73014;-75
2024/03/02 09:20:43;;;;;;;25.70;19.20;;;;;;;10.06;49.69;100233.28;105733;1253;70207;-74
2024/03/02 09:23:10;;;;;;;25.90;18.80;;;;;;;10.35;49.46;100225.77;105753;1253;71290;-74
2024/03/02 09:25:38;;;;;;;30.30;25.90;;;;;;;10.71;48.62;100235.45;105860;1255;60532;-74
2024/03/02 09:28:06;;;;;;;24.20;19.10;;;;;;;11.12;47.61;100225.39;106846;1257;60146;-73
2024/03/02 09:30:35;;;;;;;22.90;19.00;;;;;;;11.59;47.06;100229.84;107502;1253;74047;-76
2024/03/02 09:33:03;;;;;;;22.80;19.00;;;;;;;12.05;46.09;100228.15;106280;1254;67709;-75
2024/03/02 09:35:33;;;;;;;25.60;20.20;;;;;;;12.49;45.58;100226.60;105812;1259;72737;-75
2024/03/02 09:38:01;;;;;;;28.60;19.40;;;;;;;12.97;45.02;100223.56;105886;1253;60930;-75
2024/03/02 09:40:28;;;;;;;22.00;18.40;;;;;;;13.53;44.40;100218.80;105805;1252;60556;-75
2024/03/02 09:42:56;;;;;;;26.50;21.30;;;;;;;14.15;43.55;100213.19;106118;1253;73824;-76
2024/03/02 09:45:24;;;;;;;22.80;19.50;;;;;;;14.80;42.80;100211.88;106123;1253;70153;-76
2024/03/02 09:47:52;;;;;;;27.20;19.50;;;;;;;15.41;41.13;100204.89;105774;1254;71708;-73
2024/03/02 09:50:19;;;;;;;24.40;18.40;;;;;;;15.82;40.27;100203.98;105629;1258;60465;-73
2024/03/02 09:52:48;;;;;;;21.10;18.40;;;;;;;16.27;39.46;100206.77;105881;1253;60471;-75
2024/03/02 09:55:17;;;;;;;21.00;18.20;;;;;;;16.72;38.97;100208.46;105881;1253;74666;-74
2024/03/02 09:57:46;;;;;;;23.40;17.60;;;;;;;17.21;38.46;100201.40;105719;1253;72316;-75
2024/03/02 10:00:14;;;;;;;19.80;17.70;;;;;;;17.75;37.69;100198.55;105915;1254;72710;-74
2024/03/02 10:02:42;;;;;;;21.20;17.00;;;;;;;18.15;36.65;100192.65;105993;1254;60536;-75
2024/03/02 10:05:10;;;;;;;20.20;16.30;;;;;;;18.19;35.67;100191.78;106000;1253;60319;-77
2024/03/02 10:07:37;;;;;;;19.50;16.20;;;;;;;18.19;35.41;100196.17;106384;1255;73269;-75
2024/03/02 10:10:14;;;;;;;21.40;17.60;;;;;;;18.37;35.43;100191.62;107345;1253;68692;-74
2024/03/02 10:12:42;;;;;;;21.80;17.30;;;;;;;18.83;34.32;100191.05;108762;1253;71449;-74
2024/03/02 10:15:10;;;;;;;20.70;17.50;;;;;;;19.01;33.95;100196.36;108689;1255;60506;-77
2024/03/02 10:17:38;;;;;;;21.30;19.10;;;;;;;19.04;33.42;100190.34;108522;1253;60934;-74
2024/03/02 10:20:25;;;;;;;19.50;17.50;;;;;;;18.82;33.76;100189.61;107782;1253;72887;-74
2024/03/02 10:22:53;;;;;;;23.20;19.80;;;;;;;18.47;34.00;100189.53;107445;1253;69491;-73
2024/03/02 10:25:32;;;;;;;24.00;20.50;;;;;;;18.17;34.34;100186.89;108143;1253;72699;-73
2024/03/02 10:28:18;;;;;;;24.60;21.40;;;;;;;17.99;34.58;100185.59;108728;1253;58841;-75
2024/03/02 10:30:47;;;;;;;27.40;21.20;;;;;;;18.01;34.72;100179.17;108805;1253;60440;-74
2024/03/02 10:33:15;;;;;;;24.80;22.20;;;;;;;18.01;34.54;100182.48;108581;1253;72595;-76
2024/03/02 10:35:43;;;;;;;24.50;21.20;;;;;;;18.16;34.55;100179.76;108715;1254;71402;-74
2024/03/02 10:38:12;;;;;;;25.40;22.80;;;;;;;18.46;34.50;100181.92;108577;1254;71435;-75
2024/03/02 10:40:39;;;;;;;24.00;21.20;;;;;;;18.96;34.11;100180.45;108102;1253;60436;-76
2024/03/02 10:43:07;;;;;;;21.00;18.80;;;;;;;19.55;33.70;100173.39;105874;1253;61986;-74
2024/03/02 10:45:34;;;;;;;23.50;19.60;;;;;;;20.12;33.41;100176.88;105669;1253;74005;-74
2024/03/02 10:48:02;;;;;;;20.10;18.00;;;;;;;20.60;32.31;100174.05;105945;1253;70298;-73
2024/03/02 10:50:30;;;;;;;19.70;17.80;;;;;;;20.86;32.14;100177.60;105893;1254;73591;-75
2024/03/02 10:52:57;;;;;;;19.00;17.00;;;;;;;21.08;31.46;100168.20;105807;1258;60541;-76
2024/03/02 10:55:25;;;;;;;19.00;17.10;;;;;;;21.20;31.63;100164.61;105780;1258;60438;-75
2024/03/02 10:57:54;;;;;;;17.90;16.10;;;;;;;21.47;31.38;100164.70;105971;1257;76126;-76
2024/03/02 11:00:26;;;;;;;23.80;19.50;;;;;;;21.72;30.98;100157.75;105999;1253;72782;-74
2024/03/02 11:03:00;;;;;;;18.20;16.10;;;;;;;21.93;30.61;100155.59;105741;1253;71457;-74
2024/03/02 11:05:30;;;;;;;17.00;14.70;;;;;;;22.10;30.28;100155.38;105492;1253;60725;-75
2024/03/02 11:08:05;;;;;;;18.60;15.60;;;;;;;22.34;30.02;100154.79;105882;1258;60364;-75
2024/03/02 11:10:36;;;;;;;17.30;15.40;;;;;;;22.59;29.41;100150.84;105893;1253;74205;-76
2024/03/02 11:13:12;;;;;;;16.10;14.50;;;;;;;22.47;29.10;100150.73;106138;1253;70302;-76
2024/03/02 11:15:43;;;;;;;18.50;14.40;;;;;;;22.27;29.08;100147.58;106461;1254;74604;-78
2024/03/02 11:18:11;;;;;;;17.70;14.20;;;;;;;22.26;29.39;100152.27;108320;1253;60565;-79
2024/03/02 11:20:39;;;;;;;15.60;13.80;;;;;;;22.60;29.48;100146.95;107791;1253;61125;-76
2024/03/02 11:23:08;;;;;;;14.10;12.70;;;;;;;23.13;28.91;100146.98;106516;1253;74953;-77